Decoursey, Kentucky
Current Conditions -  °F | °C
As of 10:57 PM on Saturday 22 Nov 2014 (Local Time) from KI69 Reporting Station
Clear Clear  
Wind Chill: 12°   Ceiling: Unl
Heat Index: 12°   Visibility: 10mi
Dew Point:   Wind: 6mph
Humidity: 44%   Direction: 200°SSW
Pressure: 30.08"   Gusts: NA
Location:  39.0659°N, 84.5309°W
Report Text: KI69 230357Z AUTO 20005KT 10SM CLR 12/00 A3008 RMK AO1
Loading
Personal Weather Stations






























Interactive Weather Map New forecast layout! Learn more

10-Day Weather Forecast

Advertisements
Track Severe Weather on mobile